sensor_id;sensor_type;location;lat;lon;timestamp;temperature;humidity
69464;DHT22;56665;41.106;16.688;2024-02-26T00:00:07;11.66;94.68
69464;DHT22;56665;41.106;16.688;2024-02-26T00:03:12;11.55;94.31
69464;DHT22;56665;41.106;16.688;2024-02-26T00:06:17;11.62;94.58
69464;DHT22;56665;41.106;16.688;2024-02-26T00:09:21;11.66;94.68
69464;DHT22;56665;41.106;16.688;2024-02-26T00:12:25;11.65;94.59
69464;DHT22;56665;41.106;16.688;2024-02-26T00:15:29;11.61;94.47
69464;DHT22;56665;41.106;16.688;2024-02-26T00:18:33;11.49;94.06
69464;DHT22;56665;41.106;16.688;2024-02-26T00:21:40;11.49;94.20
69464;DHT22;56665;41.106;16.688;2024-02-26T00:24:45;11.45;94.18
69464;DHT22;56665;41.106;16.688;2024-02-26T00:27:49;11.48;94.43
69464;DHT22;56665;41.106;16.688;2024-02-26T00:30:52;11.47;94.39
69464;DHT22;56665;41.106;16.688;2024-02-26T00:33:59;11.44;94.34
69464;DHT22;56665;41.106;16.688;2024-02-26T00:37:02;11.44;94.38
69464;DHT22;56665;41.106;16.688;2024-02-26T00:40:06;11.52;94.57
69464;DHT22;56665;41.106;16.688;2024-02-26T00:43:10;11.55;94.60
69464;DHT22;56665;41.106;16.688;2024-02-26T00:46:14;11.55;94.64
69464;DHT22;56665;41.106;16.688;2024-02-26T00:49:18;11.52;94.47
69464;DHT22;56665;41.106;16.688;2024-02-26T00:52:21;11.48;94.41
69464;DHT22;56665;41.106;16.688;2024-02-26T00:55:25;11.42;94.39
69464;DHT22;56665;41.106;16.688;2024-02-26T00:58:29;11.39;94.40
69464;DHT22;56665;41.106;16.688;2024-02-26T01:01:33;11.37;94.32
69464;DHT22;56665;41.106;16.688;2024-02-26T01:04:36;11.35;94.32
69464;DHT22;56665;41.106;16.688;2024-02-26T01:07:40;11.34;94.35
69464;DHT22;56665;41.106;16.688;2024-02-26T01:10:44;11.37;94.36
69464;DHT22;56665;41.106;16.688;2024-02-26T01:13:47;11.35;94.36
69464;DHT22;56665;41.106;16.688;2024-02-26T01:16:51;11.37;94.26
69464;DHT22;56665;41.106;16.688;2024-02-26T01:19:55;11.38;94.24
69464;DHT22;56665;41.106;16.688;2024-02-26T01:22:59;11.37;93.84
69464;DHT22;56665;41.106;16.688;2024-02-26T01:26:03;11.38;93.91
69464;DHT22;56665;41.106;16.688;2024-02-26T01:29:08;11.34;93.75
69464;DHT22;56665;41.106;16.688;2024-02-26T01:32:11;11.29;93.63
69464;DHT22;56665;41.106;16.688;2024-02-26T01:35:15;11.34;93.80
69464;DHT22;56665;41.106;16.688;2024-02-26T01:38:19;11.35;93.91
69464;DHT22;56665;41.106;16.688;2024-02-26T01:41:23;11.38;93.83
69464;DHT22;56665;41.106;16.688;2024-02-26T01:44:27;11.38;93.74
69464;DHT22;56665;41.106;16.688;2024-02-26T01:47:31;11.39;93.72
69464;DHT22;56665;41.106;16.688;2024-02-26T01:50:35;11.38;93.61
69464;DHT22;56665;41.106;16.688;2024-02-26T01:53:41;11.34;93.58
69464;DHT22;56665;41.106;16.688;2024-02-26T01:56:45;11.34;93.58
69464;DHT22;56665;41.106;16.688;2024-02-26T01:59:49;11.34;93.62
69464;DHT22;56665;41.106;16.688;2024-02-26T02:02:52;11.34;93.53
69464;DHT22;56665;41.106;16.688;2024-02-26T02:05:58;11.34;93.67
69464;DHT22;56665;41.106;16.688;2024-02-26T02:09:02;11.35;93.64
69464;DHT22;56665;41.106;16.688;2024-02-26T02:12:10;11.31;93.64
69464;DHT22;56665;41.106;16.688;2024-02-26T02:15:14;11.29;93.66
69464;DHT22;56665;41.106;16.688;2024-02-26T02:18:19;11.21;93.53
69464;DHT22;56665;41.106;16.688;2024-02-26T02:21:23;11.24;93.71
69464;DHT22;56665;41.106;16.688;2024-02-26T02:24:26;11.24;93.82
69464;DHT22;56665;41.106;16.688;2024-02-26T02:27:30;11.25;93.72
69464;DHT22;56665;41.106;16.688;2024-02-26T02:30:34;11.24;93.76
69464;DHT22;56665;41.106;16.688;2024-02-26T02:33:39;11.24;93.62
69464;DHT22;56665;41.106;16.688;2024-02-26T02:36:52;11.22;93.61
69464;DHT22;56665;41.106;16.688;2024-02-26T02:39:56;11.24;93.46
69464;DHT22;56665;41.106;16.688;2024-02-26T02:43:01;11.27;93.54
69464;DHT22;56665;41.106;16.688;2024-02-26T02:46:05;11.28;93.48
69464;DHT22;56665;41.106;16.688;2024-02-26T02:49:09;11.31;93.38
69464;DHT22;56665;41.106;16.688;2024-02-26T02:52:14;11.28;93.31
69464;DHT22;56665;41.106;16.688;2024-02-26T02:55:18;11.25;93.13
69464;DHT22;56665;41.106;16.688;2024-02-26T02:58:21;11.24;93.27
69464;DHT22;56665;41.106;16.688;2024-02-26T03:01:25;11.25;93.08
69464;DHT22;56665;41.106;16.688;2024-02-26T03:04:29;11.24;93.16
69464;DHT22;56665;41.106;16.688;2024-02-26T03:07:32;11.18;93.01
69464;DHT22;56665;41.106;16.688;2024-02-26T03:10:36;11.22;93.17
69464;DHT22;56665;41.106;16.688;2024-02-26T03:13:41;11.21;93.06
69464;DHT22;56665;41.106;16.688;2024-02-26T03:16:45;11.24;93.16
69464;DHT22;56665;41.106;16.688;2024-02-26T03:19:48;11.28;93.00
69464;DHT22;56665;41.106;16.688;2024-02-26T03:22:56;11.24;92.92
69464;DHT22;56665;41.106;16.688;2024-02-26T03:26:00;11.24;93.08
69464;DHT22;56665;41.106;16.688;2024-02-26T03:29:04;11.28;93.18
69464;DHT22;56665;41.106;16.688;2024-02-26T03:32:09;11.27;93.19
69464;DHT22;56665;41.106;16.688;2024-02-26T03:35:13;11.31;93.13
69464;DHT22;56665;41.106;16.688;2024-02-26T03:38:16;11.25;92.72
69464;DHT22;56665;41.106;16.688;2024-02-26T03:41:20;11.25;92.64
69464;DHT22;56665;41.106;16.688;2024-02-26T03:44:24;11.21;92.50
69464;DHT22;56665;41.106;16.688;2024-02-26T03:47:27;11.21;92.57
69464;DHT22;56665;41.106;16.688;2024-02-26T03:50:31;11.18;92.50
69464;DHT22;56665;41.106;16.688;2024-02-26T03:53:36;11.18;92.54
69464;DHT22;56665;41.106;16.688;2024-02-26T03:56:40;11.19;92.55
69464;DHT22;56665;41.106;16.688;2024-02-26T03:59:44;11.18;92.57
69464;DHT22;56665;41.106;16.688;2024-02-26T04:02:48;11.12;92.39
69464;DHT22;56665;41.106;16.688;2024-02-26T04:05:52;11.12;92.50
69464;DHT22;56665;41.106;16.688;2024-02-26T04:08:55;11.14;92.54
69464;DHT22;56665;41.106;16.688;2024-02-26T04:11:59;11.11;92.49
69464;DHT22;56665;41.106;16.688;2024-02-26T04:15:03;11.10;92.16
69464;DHT22;56665;41.106;16.688;2024-02-26T04:18:07;11.14;92.30
69464;DHT22;56665;41.106;16.688;2024-02-26T04:21:12;11.11;92.21
69464;DHT22;56665;41.106;16.688;2024-02-26T04:24:16;11.11;91.94
69464;DHT22;56665;41.106;16.688;2024-02-26T04:27:20;11.04;91.66
69464;DHT22;56665;41.106;16.688;2024-02-26T04:30:23;10.93;91.20
69464;DHT22;56665;41.106;16.688;2024-02-26T04:33:27;10.97;91.43
69464;DHT22;56665;41.106;16.688;2024-02-26T04:36:31;10.96;91.14
69464;DHT22;56665;41.106;16.688;2024-02-26T04:39:35;10.96;91.01
69464;DHT22;56665;41.106;16.688;2024-02-26T04:42:38;10.84;90.18
69464;DHT22;56665;41.106;16.688;2024-02-26T04:45:43;10.80;90.47
69464;DHT22;56665;41.106;16.688;2024-02-26T04:48:47;10.79;90.64
69464;DHT22;56665;41.106;16.688;2024-02-26T04:51:50;10.79;90.73
69464;DHT22;56665;41.106;16.688;2024-02-26T04:54:54;10.76;90.70
69464;DHT22;56665;41.106;16.688;2024-02-26T04:57:58;10.73;90.82
69464;DHT22;56665;41.106;16.688;2024-02-26T05:01:02;10.69;90.92
69464;DHT22;56665;41.106;16.688;2024-02-26T05:04:07;10.65;91.05
69464;DHT22;56665;41.106;16.688;2024-02-26T05:07:10;10.62;91.12
69464;DHT22;56665;41.106;16.688;2024-02-26T05:10:15;10.48;90.93
69464;DHT22;56665;41.106;16.688;2024-02-26T05:13:19;10.45;91.04
69464;DHT22;56665;41.106;16.688;2024-02-26T05:16:23;10.42;91.11
69464;DHT22;56665;41.106;16.688;2024-02-26T05:19:28;10.33;90.89
69464;DHT22;56665;41.106;16.688;2024-02-26T05:22:31;10.30;91.17
69464;DHT22;56665;41.106;16.688;2024-02-26T05:25:36;10.25;90.91
69464;DHT22;56665;41.106;16.688;2024-02-26T05:28:39;10.15;90.75
69464;DHT22;56665;41.106;16.688;2024-02-26T05:31:43;10.14;91.23
69464;DHT22;56665;41.106;16.688;2024-02-26T05:34:47;10.11;91.42
69464;DHT22;56665;41.106;16.688;2024-02-26T05:37:51;10.11;91.33
69464;DHT22;56665;41.106;16.688;2024-02-26T05:40:55;10.12;91.50
69464;DHT22;56665;41.106;16.688;2024-02-26T05:43:59;10.12;91.65
69464;DHT22;56665;41.106;16.688;2024-02-26T05:47:02;10.14;91.64
69464;DHT22;56665;41.106;16.688;2024-02-26T05:50:06;10.17;91.59
69464;DHT22;56665;41.106;16.688;2024-02-26T05:53:10;10.18;91.38
69464;DHT22;56665;41.106;16.688;2024-02-26T05:56:14;10.19;91.30
69464;DHT22;56665;41.106;16.688;2024-02-26T05:59:18;10.19;91.21
69464;DHT22;56665;41.106;16.688;2024-02-26T06:02:21;10.19;91.22
69464;DHT22;56665;41.106;16.688;2024-02-26T06:05:25;10.17;90.93
69464;DHT22;56665;41.106;16.688;2024-02-26T06:08:29;10.19;91.16
69464;DHT22;56665;41.106;16.688;2024-02-26T06:11:34;10.25;91.09
69464;DHT22;56665;41.106;16.688;2024-02-26T06:14:38;10.30;90.96
69464;DHT22;56665;41.106;16.688;2024-02-26T06:17:42;10.35;90.69
69464;DHT22;56665;41.106;16.688;2024-02-26T06:20:46;10.40;90.63
69464;DHT22;56665;41.106;16.688;2024-02-26T06:23:49;10.48;89.97
69464;DHT22;56665;41.106;16.688;2024-02-26T06:26:53;10.56;89.55
69464;DHT22;56665;41.106;16.688;2024-02-26T06:29:57;10.65;88.85
69464;DHT22;56665;41.106;16.688;2024-02-26T06:33:01;10.76;88.92
69464;DHT22;56665;41.106;16.688;2024-02-26T06:36:05;10.91;88.22
69464;DHT22;56665;41.106;16.688;2024-02-26T06:39:08;11.14;88.05
69464;DHT22;56665;41.106;16.688;2024-02-26T06:42:14;11.25;87.24
69464;DHT22;56665;41.106;16.688;2024-02-26T06:45:18;11.37;86.70
69464;DHT22;56665;41.106;16.688;2024-02-26T06:48:24;11.48;86.46
69464;DHT22;56665;41.106;16.688;2024-02-26T06:51:28;11.62;85.53
69464;DHT22;56665;41.106;16.688;2024-02-26T06:54:31;11.75;84.60
69464;DHT22;56665;41.106;16.688;2024-02-26T06:57:35;11.96;84.50
69464;DHT22;56665;41.106;16.688;2024-02-26T07:00:39;11.87;84.54
69464;DHT22;56665;41.106;16.688;2024-02-26T07:03:43;11.80;84.70
69464;DHT22;56665;41.106;16.688;2024-02-26T07:06:47;11.86;84.99
69464;DHT22;56665;41.106;16.688;2024-02-26T07:09:51;12.23;84.31
69464;DHT22;56665;41.106;16.688;2024-02-26T07:12:37;12.41;83.56
69464;DHT22;56665;41.106;16.688;2024-02-26T07:15:41;12.59;82.84
69464;DHT22;56665;41.106;16.688;2024-02-26T07:18:45;12.86;82.02
69464;DHT22;56665;41.106;16.688;2024-02-26T07:21:48;13.05;80.86
69464;DHT22;56665;41.106;16.688;2024-02-26T07:24:52;13.17;81.42
69464;DHT22;56665;41.106;16.688;2024-02-26T07:27:56;13.30;80.79
69464;DHT22;56665;41.106;16.688;2024-02-26T07:30:59;13.44;80.66
69464;DHT22;56665;41.106;16.688;2024-02-26T07:34:03;13.48;80.11
69464;DHT22;56665;41.106;16.688;2024-02-26T07:37:08;13.74;80.34
69464;DHT22;56665;41.106;16.688;2024-02-26T07:40:12;14.01;79.64
69464;DHT22;56665;41.106;16.688;2024-02-26T07:43:15;14.26;78.87
69464;DHT22;56665;41.106;16.688;2024-02-26T07:46:19;14.43;77.68
69464;DHT22;56665;41.106;16.688;2024-02-26T07:49:23;14.49;77.03
69464;DHT22;56665;41.106;16.688;2024-02-26T07:52:26;14.64;76.37
69464;DHT22;56665;41.106;16.688;2024-02-26T07:55:30;14.91;76.00
69464;DHT22;56665;41.106;16.688;2024-02-26T07:58:34;15.08;75.45
69464;DHT22;56665;41.106;16.688;2024-02-26T08:01:38;15.19;73.33
69464;DHT22;56665;41.106;16.688;2024-02-26T08:04:43;15.60;72.85
69464;DHT22;56665;41.106;16.688;2024-02-26T08:07:46;15.57;71.54
69464;DHT22;56665;41.106;16.688;2024-02-26T08:10:50;15.53;72.25
69464;DHT22;56665;41.106;16.688;2024-02-26T08:13:54;15.77;72.34
69464;DHT22;56665;41.106;16.688;2024-02-26T08:16:58;15.91;71.82
69464;DHT22;56665;41.106;16.688;2024-02-26T08:20:02;16.18;71.33
69464;DHT22;56665;41.106;16.688;2024-02-26T08:23:06;16.32;70.19
69464;DHT22;56665;41.106;16.688;2024-02-26T08:26:09;16.53;69.90
69464;DHT22;56665;41.106;16.688;2024-02-26T08:29:14;16.70;69.38
69464;DHT22;56665;41.106;16.688;2024-02-26T08:32:18;16.96;68.72
69464;DHT22;56665;41.106;16.688;2024-02-26T08:35:23;17.28;68.06
69464;DHT22;56665;41.106;16.688;2024-02-26T08:38:26;17.57;67.89
69464;DHT22;56665;41.106;16.688;2024-02-26T08:41:30;17.72;66.75
69464;DHT22;56665;41.106;16.688;2024-02-26T08:44:34;17.92;66.15
69464;DHT22;56665;41.106;16.688;2024-02-26T08:47:38;17.61;66.20
69464;DHT22;56665;41.106;16.688;2024-02-26T08:50:41;17.88;65.20
69464;DHT22;56665;41.106;16.688;2024-02-26T08:53:45;18.26;63.96
69464;DHT22;56665;41.106;16.688;2024-02-26T08:56:49;18.41;61.84
69464;DHT22;56665;41.106;16.688;2024-02-26T08:59:53;18.54;63.46
69464;DHT22;56665;41.106;16.688;2024-02-26T09:02:57;18.78;62.03
69464;DHT22;56665;41.106;16.688;2024-02-26T09:06:01;19.23;60.62
69464;DHT22;56665;41.106;16.688;2024-02-26T09:09:05;19.45;60.02
69464;DHT22;56665;41.106;16.688;2024-02-26T09:12:09;19.66;60.01
69464;DHT22;56665;41.106;16.688;2024-02-26T09:15:13;19.91;59.09
69464;DHT22;56665;41.106;16.688;2024-02-26T09:18:17;20.12;58.53
69464;DHT22;56665;41.106;16.688;2024-02-26T09:21:21;20.30;58.43
69464;DHT22;56665;41.106;16.688;2024-02-26T09:24:27;20.45;58.22
69464;DHT22;56665;41.106;16.688;2024-02-26T09:27:30;20.50;57.95
69464;DHT22;56665;41.106;16.688;2024-02-26T09:30:34;20.69;56.63
69464;DHT22;56665;41.106;16.688;2024-02-26T09:33:38;20.93;55.92
69464;DHT22;56665;41.106;16.688;2024-02-26T09:36:41;21.19;55.88
69464;DHT22;56665;41.106;16.688;2024-02-26T09:39:45;21.32;55.41
69464;DHT22;56665;41.106;16.688;2024-02-26T09:42:53;21.45;54.63
69464;DHT22;56665;41.106;16.688;2024-02-26T09:45:57;21.52;54.94
69464;DHT22;56665;41.106;16.688;2024-02-26T09:49:00;21.56;54.57
69464;DHT22;56665;41.106;16.688;2024-02-26T09:52:08;21.67;54.66
69464;DHT22;56665;41.106;16.688;2024-02-26T09:55:12;22.02;54.90
69464;DHT22;56665;41.106;16.688;2024-02-26T09:58:17;21.77;54.37
69464;DHT22;56665;41.106;16.688;2024-02-26T10:01:22;21.99;54.22
69464;DHT22;56665;41.106;16.688;2024-02-26T10:04:27;22.07;53.57
69464;DHT22;56665;41.106;16.688;2024-02-26T10:07:32;22.09;53.47
69464;DHT22;56665;41.106;16.688;2024-02-26T10:10:37;22.45;53.77
69464;DHT22;56665;41.106;16.688;2024-02-26T10:13:41;22.74;52.98
69464;DHT22;56665;41.106;16.688;2024-02-26T10:16:45;22.72;52.56
69464;DHT22;56665;41.106;16.688;2024-02-26T10:19:50;22.84;52.86
69464;DHT22;56665;41.106;16.688;2024-02-26T10:22:55;22.85;52.82
69464;DHT22;56665;41.106;16.688;2024-02-26T10:25:58;22.85;53.41
69464;DHT22;56665;41.106;16.688;2024-02-26T10:29:02;22.54;54.06
69464;DHT22;56665;41.106;16.688;2024-02-26T10:32:06;22.63;53.97
69464;DHT22;56665;41.106;16.688;2024-02-26T10:35:10;22.30;53.30
69464;DHT22;56665;41.106;16.688;2024-02-26T10:38:13;22.26;53.88
69464;DHT22;56665;41.106;16.688;2024-02-26T10:41:20;22.31;53.45
69464;DHT22;56665;41.106;16.688;2024-02-26T10:44:25;22.09;54.46
69464;DHT22;56665;41.106;16.688;2024-02-26T10:47:30;22.37;54.29
69464;DHT22;56665;41.106;16.688;2024-02-26T10:50:35;22.35;53.79
69464;DHT22;56665;41.106;16.688;2024-02-26T10:53:40;21.82;53.55
69464;DHT22;56665;41.106;16.688;2024-02-26T10:56:46;21.01;56.18
69464;DHT22;56665;41.106;16.688;2024-02-26T10:59:51;21.18;56.31
69464;DHT22;56665;41.106;16.688;2024-02-26T11:02:56;21.41;55.58
69464;DHT22;56665;41.106;16.688;2024-02-26T11:06:03;21.72;55.72
69464;DHT22;56665;41.106;16.688;2024-02-26T11:09:08;21.45;57.42
69464;DHT22;56665;41.106;16.688;2024-02-26T11:12:18;20.90;58.33
69464;DHT22;56665;41.106;16.688;2024-02-26T11:15:22;20.88;59.23
69464;DHT22;56665;41.106;16.688;2024-02-26T11:18:27;20.70;59.03
69464;DHT22;56665;41.106;16.688;2024-02-26T11:21:32;20.56;60.54
69464;DHT22;56665;41.106;16.688;2024-02-26T11:24:45;19.71;62.09
69464;DHT22;56665;41.106;16.688;2024-02-26T11:27:53;19.91;62.45
69464;DHT22;56665;41.106;16.688;2024-02-26T11:30:59;20.15;61.77
69464;DHT22;56665;41.106;16.688;2024-02-26T11:34:04;19.74;62.30
69464;DHT22;56665;41.106;16.688;2024-02-26T11:40:14;18.57;66.61
69464;DHT22;56665;41.106;16.688;2024-02-26T11:43:17;17.88;68.22
69464;DHT22;56665;41.106;16.688;2024-02-26T11:46:32;17.83;68.16
69464;DHT22;56665;41.106;16.688;2024-02-26T11:49:35;17.85;68.40
69464;DHT22;56665;41.106;16.688;2024-02-26T11:52:40;18.12;66.95
69464;DHT22;56665;41.106;16.688;2024-02-26T11:55:43;18.72;65.58
69464;DHT22;56665;41.106;16.688;2024-02-26T11:58:47;18.78;65.18
69464;DHT22;56665;41.106;16.688;2024-02-26T12:01:53;18.53;65.99
69464;DHT22;56665;41.106;16.688;2024-02-26T12:04:57;18.31;67.41
69464;DHT22;56665;41.106;16.688;2024-02-26T12:08:08;18.26;67.80
69464;DHT22;56665;41.106;16.688;2024-02-26T12:11:15;18.71;66.54
69464;DHT22;56665;41.106;16.688;2024-02-26T12:14:25;18.60;66.53
69464;DHT22;56665;41.106;16.688;2024-02-26T12:17:29;18.17;67.89
69464;DHT22;56665;41.106;16.688;2024-02-26T12:20:32;18.27;67.37
69464;DHT22;56665;41.106;16.688;2024-02-26T12:23:36;18.00;67.72
69464;DHT22;56665;41.106;16.688;2024-02-26T12:26:40;18.05;68.81
69464;DHT22;56665;41.106;16.688;2024-02-26T12:29:44;17.83;68.67
69464;DHT22;56665;41.106;16.688;2024-02-26T12:32:49;17.99;69.34
69464;DHT22;56665;41.106;16.688;2024-02-26T12:35:53;18.12;68.81
69464;DHT22;56665;41.106;16.688;2024-02-26T12:38:57;18.30;68.05
69464;DHT22;56665;41.106;16.688;2024-02-26T12:42:02;18.27;67.86
69464;DHT22;56665;41.106;16.688;2024-02-26T12:48:13;17.81;69.73
69464;DHT22;56665;41.106;16.688;2024-02-26T12:51:17;18.09;68.65
69464;DHT22;56665;41.106;16.688;2024-02-26T12:54:21;17.99;69.27
69464;DHT22;56665;41.106;16.688;2024-02-26T12:57:26;17.95;68.99
69464;DHT22;56665;41.106;16.688;2024-02-26T13:00:30;17.90;69.28
69464;DHT22;56665;41.106;16.688;2024-02-26T13:03:36;17.64;69.97
69464;DHT22;56665;41.106;16.688;2024-02-26T13:06:40;17.49;70.83
69464;DHT22;56665;41.106;16.688;2024-02-26T13:09:43;17.35;70.92
69464;DHT22;56665;41.106;16.688;2024-02-26T13:12:49;17.48;70.86
69464;DHT22;56665;41.106;16.688;2024-02-26T13:16:05;17.28;72.10
69464;DHT22;56665;41.106;16.688;2024-02-26T13:19:10;17.31;72.28
69464;DHT22;56665;41.106;16.688;2024-02-26T13:22:14;17.30;71.80
69464;DHT22;56665;41.106;16.688;2024-02-26T13:25:21;16.97;72.89
69464;DHT22;56665;41.106;16.688;2024-02-26T13:28:25;16.66;74.00
69464;DHT22;56665;41.106;16.688;2024-02-26T13:31:31;16.72;74.44
69464;DHT22;56665;41.106;16.688;2024-02-26T13:34:35;17.03;73.39
69464;DHT22;56665;41.106;16.688;2024-02-26T13:37:40;17.23;72.59
69464;DHT22;56665;41.106;16.688;2024-02-26T13:40:44;16.97;73.26
69464;DHT22;56665;41.106;16.688;2024-02-26T13:43:48;17.18;72.70
69464;DHT22;56665;41.106;16.688;2024-02-26T13:46:52;17.11;72.85
69464;DHT22;56665;41.106;16.688;2024-02-26T13:49:56;17.65;71.68
69464;DHT22;56665;41.106;16.688;2024-02-26T13:52:59;17.85;71.26
69464;DHT22;56665;41.106;16.688;2024-02-26T13:56:03;17.55;71.33
69464;DHT22;56665;41.106;16.688;2024-02-26T13:59:08;17.26;72.21
69464;DHT22;56665;41.106;16.688;2024-02-26T14:02:12;16.97;72.97
69464;DHT22;56665;41.106;16.688;2024-02-26T14:05:16;17.31;71.91
69464;DHT22;56665;41.106;16.688;2024-02-26T14:08:20;17.11;72.25
69464;DHT22;56665;41.106;16.688;2024-02-26T14:11:24;17.06;72.78
69464;DHT22;56665;41.106;16.688;2024-02-26T14:14:29;17.06;72.70
69464;DHT22;56665;41.106;16.688;2024-02-26T14:17:33;17.37;72.54
69464;DHT22;56665;41.106;16.688;2024-02-26T14:20:37;17.00;73.24
69464;DHT22;56665;41.106;16.688;2024-02-26T14:23:42;17.02;73.41
69464;DHT22;56665;41.106;16.688;2024-02-26T14:26:47;17.16;72.86
69464;DHT22;56665;41.106;16.688;2024-02-26T14:29:51;16.96;73.84
69464;DHT22;56665;41.106;16.688;2024-02-26T14:32:55;16.65;74.15
69464;DHT22;56665;41.106;16.688;2024-02-26T14:35:59;16.44;75.07
69464;DHT22;56665;41.106;16.688;2024-02-26T14:39:03;16.04;76.26
69464;DHT22;56665;41.106;16.688;2024-02-26T14:42:06;15.88;76.67
69464;DHT22;56665;41.106;16.688;2024-02-26T14:45:10;15.66;77.91
69464;DHT22;56665;41.106;16.688;2024-02-26T14:48:15;15.60;78.33
69464;DHT22;56665;41.106;16.688;2024-02-26T14:51:18;15.65;78.52
69464;DHT22;56665;41.106;16.688;2024-02-26T14:54:22;15.53;78.69
69464;DHT22;56665;41.106;16.688;2024-02-26T14:57:26;15.45;79.00
69464;DHT22;56665;41.106;16.688;2024-02-26T15:00:30;15.43;79.49
69464;DHT22;56665;41.106;16.688;2024-02-26T15:03:37;15.36;79.57
69464;DHT22;56665;41.106;16.688;2024-02-26T15:06:41;15.32;80.04
69464;DHT22;56665;41.106;16.688;2024-02-26T15:09:45;15.22;80.53
69464;DHT22;56665;41.106;16.688;2024-02-26T15:12:48;15.09;80.94
69464;DHT22;56665;41.106;16.688;2024-02-26T15:15:54;15.08;81.62
69464;DHT22;56665;41.106;16.688;2024-02-26T15:18:57;15.02;81.59
69464;DHT22;56665;41.106;16.688;2024-02-26T15:22:01;14.95;81.80
69464;DHT22;56665;41.106;16.688;2024-02-26T15:25:05;14.89;82.16
69464;DHT22;56665;41.106;16.688;2024-02-26T15:28:10;14.89;82.33
69464;DHT22;56665;41.106;16.688;2024-02-26T15:31:16;14.88;82.71
69464;DHT22;56665;41.106;16.688;2024-02-26T15:34:19;14.92;82.73
69464;DHT22;56665;41.106;16.688;2024-02-26T15:37:24;14.92;82.57
69464;DHT22;56665;41.106;16.688;2024-02-26T15:40:28;14.80;82.70
69464;DHT22;56665;41.106;16.688;2024-02-26T15:43:32;14.63;82.91
69464;DHT22;56665;41.106;16.688;2024-02-26T15:46:40;14.50;83.03
69464;DHT22;56665;41.106;16.688;2024-02-26T15:49:44;14.39;83.66
69464;DHT22;56665;41.106;16.688;2024-02-26T15:52:47;14.43;83.99
69464;DHT22;56665;41.106;16.688;2024-02-26T15:55:51;14.52;83.87
69464;DHT22;56665;41.106;16.688;2024-02-26T15:58:55;14.53;83.66
69464;DHT22;56665;41.106;16.688;2024-02-26T16:01:59;14.47;83.42
69464;DHT22;56665;41.106;16.688;2024-02-26T16:05:04;14.57;84.03
69464;DHT22;56665;41.106;16.688;2024-02-26T16:08:18;14.56;83.92
69464;DHT22;56665;41.106;16.688;2024-02-26T16:11:23;14.50;83.84
69464;DHT22;56665;41.106;16.688;2024-02-26T16:14:47;14.53;83.79
69464;DHT22;56665;41.106;16.688;2024-02-26T16:17:53;14.46;84.10
69464;DHT22;56665;41.106;16.688;2024-02-26T16:20:59;14.39;84.31
69464;DHT22;56665;41.106;16.688;2024-02-26T16:24:03;14.39;84.43
69464;DHT22;56665;41.106;16.688;2024-02-26T16:27:06;14.29;84.50
69464;DHT22;56665;41.106;16.688;2024-02-26T16:30:11;14.22;84.57
69464;DHT22;56665;41.106;16.688;2024-02-26T16:33:15;14.23;84.96
69464;DHT22;56665;41.106;16.688;2024-02-26T16:36:19;14.20;84.63
69464;DHT22;56665;41.106;16.688;2024-02-26T16:39:24;14.18;84.92
69464;DHT22;56665;41.106;16.688;2024-02-26T16:42:27;14.13;85.16
69464;DHT22;56665;41.106;16.688;2024-02-26T16:45:31;14.09;85.10
69464;DHT22;56665;41.106;16.688;2024-02-26T16:48:35;14.06;85.39
69464;DHT22;56665;41.106;16.688;2024-02-26T16:51:40;14.01;85.71
69464;DHT22;56665;41.106;16.688;2024-02-26T16:54:45;14.08;85.72
69464;DHT22;56665;41.106;16.688;2024-02-26T16:57:48;14.06;85.69
69464;DHT22;56665;41.106;16.688;2024-02-26T17:00:52;14.05;85.96
69464;DHT22;56665;41.106;16.688;2024-02-26T17:03:56;13.95;85.98
69464;DHT22;56665;41.106;16.688;2024-02-26T17:07:00;13.91;86.53
69464;DHT22;56665;41.106;16.688;2024-02-26T17:10:05;13.88;86.36
69464;DHT22;56665;41.106;16.688;2024-02-26T17:13:09;13.85;86.55
69464;DHT22;56665;41.106;16.688;2024-02-26T17:16:13;13.85;86.68
69464;DHT22;56665;41.106;16.688;2024-02-26T17:19:17;13.84;86.89
69464;DHT22;56665;41.106;16.688;2024-02-26T17:22:21;13.85;87.04
69464;DHT22;56665;41.106;16.688;2024-02-26T17:25:25;13.91;86.83
69464;DHT22;56665;41.106;16.688;2024-02-26T17:28:29;13.92;86.70
69464;DHT22;56665;41.106;16.688;2024-02-26T17:31:32;13.92;86.57
69464;DHT22;56665;41.106;16.688;2024-02-26T17:34:40;13.92;86.79
69464;DHT22;56665;41.106;16.688;2024-02-26T17:37:45;13.94;86.81
69464;DHT22;56665;41.106;16.688;2024-02-26T17:40:48;13.91;86.84
69464;DHT22;56665;41.106;16.688;2024-02-26T17:43:52;14.01;87.06
69464;DHT22;56665;41.106;16.688;2024-02-26T17:46:56;13.99;86.81
69464;DHT22;56665;41.106;16.688;2024-02-26T17:50:00;13.95;86.87
69464;DHT22;56665;41.106;16.688;2024-02-26T17:53:04;13.91;86.81
69464;DHT22;56665;41.106;16.688;2024-02-26T17:56:08;13.84;86.96
69464;DHT22;56665;41.106;16.688;2024-02-26T17:59:12;13.87;87.16
69464;DHT22;56665;41.106;16.688;2024-02-26T18:02:15;13.87;87.17
69464;DHT22;56665;41.106;16.688;2024-02-26T18:05:19;13.88;86.92
69464;DHT22;56665;41.106;16.688;2024-02-26T18:08:23;13.82;86.82
69464;DHT22;56665;41.106;16.688;2024-02-26T18:11:27;13.78;86.91
69464;DHT22;56665;41.106;16.688;2024-02-26T18:14:31;13.65;87.07
69464;DHT22;56665;41.106;16.688;2024-02-26T18:17:34;13.59;87.19
69464;DHT22;56665;41.106;16.688;2024-02-26T18:20:39;13.58;87.40
69464;DHT22;56665;41.106;16.688;2024-02-26T18:23:43;13.61;87.43
69464;DHT22;56665;41.106;16.688;2024-02-26T18:26:46;13.59;87.52
69464;DHT22;56665;41.106;16.688;2024-02-26T18:29:53;13.57;87.65
69464;DHT22;56665;41.106;16.688;2024-02-26T18:32:57;13.53;87.84
69464;DHT22;56665;41.106;16.688;2024-02-26T18:36:00;13.47;87.86
69464;DHT22;56665;41.106;16.688;2024-02-26T18:39:07;13.44;87.88
69464;DHT22;56665;41.106;16.688;2024-02-26T18:42:12;13.36;87.81
69464;DHT22;56665;41.106;16.688;2024-02-26T18:45:17;13.30;87.92
69464;DHT22;56665;41.106;16.688;2024-02-26T18:48:22;13.31;88.06
69464;DHT22;56665;41.106;16.688;2024-02-26T18:51:27;13.28;88.17
69464;DHT22;56665;41.106;16.688;2024-02-26T18:54:32;13.27;88.35
69464;DHT22;56665;41.106;16.688;2024-02-26T18:57:35;13.23;88.26
69464;DHT22;56665;41.106;16.688;2024-02-26T19:00:40;13.20;88.39
69464;DHT22;56665;41.106;16.688;2024-02-26T19:03:43;13.12;88.52
69464;DHT22;56665;41.106;16.688;2024-02-26T19:06:47;13.15;88.51
69464;DHT22;56665;41.106;16.688;2024-02-26T19:09:51;13.15;88.53